Time;durP1;ratioP1;P1;durP2;ratioP2;P2;SDS_P1;SDS_P2;PMS_P1;PMS_P2;Temp;Humidity;BMP_temperature;BMP_pressure;BME280_temperature;BME280_humidity;BME280_pressure;Samples;Min_cycle;Max_cycle;Signal;HPM_P1;HPM_P2
2022/12/04 00:01:24;;;;;;;43.40;19.90;;;;;;;1.66;76.95;99904.23;103652;1288;108053;-68
2022/12/04 00:03:54;;;;;;;45.70;22.00;;;;;;;1.61;77.10;99912.21;103659;1288;98002;-69
2022/12/04 00:06:23;;;;;;;43.70;19.80;;;;;;;1.60;77.34;99912.40;103583;1297;97993;-70
2022/12/04 00:08:52;;;;;;;41.10;18.80;;;;;;;1.58;77.03;99914.90;103665;1297;110900;-70
2022/12/04 00:11:25;;;;;;;42.20;19.50;;;;;;;1.56;77.12;99921.22;103625;1295;97778;-69
2022/12/04 00:13:55;;;;;;;32.90;15.80;;;;;;;1.54;77.02;99923.55;103608;1288;107052;-70
2022/12/04 00:16:32;;;;;;;41.60;19.10;;;;;;;1.52;77.18;99922.54;103461;1291;95287;-69
2022/12/04 00:19:00;;;;;;;44.80;20.50;;;;;;;1.51;76.88;99919.77;103546;1298;97968;-69
2022/12/04 00:21:28;;;;;;;38.80;18.60;;;;;;;1.49;76.85;99918.05;103330;1296;111365;-70
2022/12/04 00:23:57;;;;;;;41.60;19.90;;;;;;;1.48;77.20;99918.25;103457;1295;97985;-68
2022/12/04 00:26:27;;;;;;;41.60;19.50;;;;;;;1.48;77.25;99914.75;103404;1299;108096;-69
2022/12/04 00:28:56;;;;;;;40.10;18.10;;;;;;;1.48;77.11;99913.71;103594;1290;98028;-69
2022/12/04 00:31:27;;;;;;;45.20;19.70;;;;;;;1.48;77.16;99919.48;103557;1297;97911;-67
2022/12/04 00:33:56;;;;;;;40.70;19.60;;;;;;;1.48;77.11;99918.23;103651;1299;111561;-69
2022/12/04 00:36:27;;;;;;;45.00;23.00;;;;;;;1.49;76.92;99919.63;103608;1298;98003;-70
2022/12/04 00:38:58;;;;;;;39.30;18.40;;;;;;;1.47;77.13;99920.37;103424;1299;108789;-69
2022/12/04 00:41:30;;;;;;;32.40;16.10;;;;;;;1.46;77.19;99922.49;103546;1297;97027;-69
2022/12/04 00:44:01;;;;;;;39.70;19.20;;;;;;;1.44;76.98;99923.75;103608;1295;95160;-68
2022/12/04 00:46:29;;;;;;;34.20;15.20;;;;;;;1.43;77.38;99921.84;103537;1296;111506;-69
2022/12/04 00:49:00;;;;;;;30.70;14.50;;;;;;;1.42;76.92;99918.05;103567;1297;95232;-69
2022/12/04 00:51:30;;;;;;;33.10;14.40;;;;;;;1.39;76.97;99920.37;103528;1299;108051;-69
2022/12/04 00:53:58;;;;;;;30.50;13.90;;;;;;;1.38;77.08;99918.13;103380;1295;97972;-70
2022/12/04 00:56:27;;;;;;;30.80;14.80;;;;;;;1.35;77.02;99920.80;103438;1288;97060;-72
2022/12/04 00:59:00;;;;;;;34.00;14.30;;;;;;;1.35;77.14;99920.10;103576;1295;111866;-69
2022/12/04 01:01:29;;;;;;;30.90;13.90;;;;;;;1.36;77.22;99915.01;103612;1299;97801;-70
2022/12/04 01:03:58;;;;;;;30.30;13.40;;;;;;;1.35;77.37;99905.77;103605;1291;108320;-70
2022/12/04 01:06:34;;;;;;;31.60;14.00;;;;;;;1.36;77.04;99908.71;103646;1299;97923;-70
2022/12/04 01:09:04;;;;;;;31.50;13.00;;;;;;;1.36;77.00;99907.86;103606;1297;95228;-69
2022/12/04 01:11:33;;;;;;;30.10;13.70;;;;;;;1.36;77.13;99904.52;103622;1297;111014;-69
2022/12/04 01:14:01;;;;;;;32.60;13.20;;;;;;;1.36;77.09;99905.73;103654;1297;96294;-69
2022/12/04 01:16:35;;;;;;;28.00;13.40;;;;;;;1.35;77.18;99900.02;103593;1299;107774;-71
2022/12/04 01:19:06;;;;;;;31.30;13.10;;;;;;;1.36;77.02;99899.11;103611;1298;97976;-69
2022/12/04 01:21:35;;;;;;;29.20;13.20;;;;;;;1.35;77.02;99896.16;103446;1299;96983;-69
2022/12/04 01:24:04;;;;;;;30.60;13.50;;;;;;;1.34;77.42;99894.23;103536;1295;111823;-70
2022/12/04 01:26:32;;;;;;;31.20;13.60;;;;;;;1.35;77.36;99896.16;103622;1299;98012;-70
2022/12/04 01:29:01;;;;;;;28.60;13.60;;;;;;;1.34;77.00;99897.75;103503;1291;106352;-72
2022/12/04 01:31:29;;;;;;;30.50;14.10;;;;;;;1.33;77.32;99890.77;103555;1281;97803;-70
2022/12/04 01:33:57;;;;;;;31.70;14.10;;;;;;;1.34;77.31;99886.91;103572;1297;97941;-71
2022/12/04 01:36:27;;;;;;;30.70;14.00;;;;;;;1.33;77.26;99887.80;103468;1298;111152;-70
2022/12/04 01:38:57;;;;;;;28.10;12.20;;;;;;;1.31;77.17;99889.77;103576;1289;95423;-70
2022/12/04 01:41:28;;;;;;;28.50;13.00;;;;;;;1.26;77.27;99884.98;103582;1290;107797;-70
2022/12/04 01:44:11;;;;;;;30.30;13.60;;;;;;;1.25;77.31;99886.07;103559;1292;97981;-69
2022/12/04 01:46:41;;;;;;;84.20;39.00;;;;;;;1.25;77.12;99886.05;103565;1298;97895;-69
2022/12/04 01:49:14;;;;;;;42.50;18.50;;;;;;;1.24;77.49;99890.61;103504;1297;111410;-70
2022/12/04 01:51:49;;;;;;;31.20;14.00;;;;;;;1.25;77.15;99892.52;103546;1304;97977;-69
2022/12/04 01:54:28;;;;;;;30.20;13.50;;;;;;;1.25;77.08;99887.80;103530;1297;107250;-69
2022/12/04 01:57:14;;;;;;;33.70;15.80;;;;;;;1.26;77.16;99891.96;103493;1291;96494;-69
2022/12/04 01:59:58;;;;;;;34.20;14.20;;;;;;;1.27;77.27;99887.58;103535;1291;97967;-70
2022/12/04 02:02:36;;;;;;;33.80;15.20;;;;;;;1.27;76.98;99884.44;103519;1299;111883;-70
2022/12/04 02:05:08;;;;;;;31.90;14.20;;;;;;;1.26;77.25;99875.02;103639;1297;96177;-68
2022/12/04 02:07:38;;;;;;;30.50;13.50;;;;;;;1.27;77.18;99873.27;103413;1298;108139;-69
2022/12/04 02:10:08;;;;;;;31.10;13.60;;;;;;;1.27;77.13;99873.44;103474;1291;98002;-69
2022/12/04 02:13:01;;;;;;;30.60;14.10;;;;;;;1.27;77.22;99874.14;103500;1298;95195;-69
2022/12/04 02:15:44;;;;;;;32.10;13.70;;;;;;;1.27;77.27;99876.58;103520;1297;111813;-70
2022/12/04 02:18:40;;;;;;;33.60;15.00;;;;;;;1.28;77.37;99875.50;103418;1293;97962;-69
2022/12/04 02:21:25;;;;;;;32.00;13.70;;;;;;;1.29;77.11;99874.09;103432;1302;107896;-70
2022/12/04 02:24:14;;;;;;;27.60;12.40;;;;;;;1.29;77.17;99875.83;103415;1298;96389;-68
2022/12/04 02:26:57;;;;;;;67.90;32.20;;;;;;;1.31;77.64;99874.41;103381;1298;97775;-70
2022/12/04 02:29:47;;;;;;;35.10;15.90;;;;;;;1.33;77.51;99870.86;103542;1291;111494;-69
2022/12/04 02:32:18;;;;;;;31.30;13.50;;;;;;;1.34;77.35;99875.38;103425;1297;95393;-68
2022/12/04 02:35:03;;;;;;;31.50;14.20;;;;;;;1.36;77.48;99872.38;103601;1295;108073;-68
2022/12/04 02:37:40;;;;;;;29.10;12.90;;;;;;;1.35;77.26;99869.77;103342;1297;97947;-68
2022/12/04 02:40:33;;;;;;;31.30;13.30;;;;;;;1.33;77.41;99870.50;103534;1298;97843;-69
2022/12/04 02:43:10;;;;;;;30.30;13.10;;;;;;;1.31;77.33;99872.29;103480;1288;111129;-69
2022/12/04 02:45:47;;;;;;;29.30;13.10;;;;;;;1.29;77.40;99873.04;103466;1295;96498;-68
2022/12/04 02:48:19;;;;;;;28.30;11.80;;;;;;;1.28;77.52;99870.80;103432;1295;108151;-69
2022/12/04 02:50:55;;;;;;;28.60;13.20;;;;;;;1.25;77.33;99862.63;103543;1291;96943;-69
2022/12/04 02:53:34;;;;;;;30.60;14.30;;;;;;;1.23;77.24;99859.89;103586;1298;97814;-68
2022/12/04 02:56:08;;;;;;;31.40;13.80;;;;;;;1.23;77.27;99860.77;103510;1288;111715;-68
2022/12/04 02:58:49;;;;;;;34.10;14.70;;;;;;;1.24;77.51;99863.38;103545;1297;98431;-68
2022/12/04 03:01:24;;;;;;;28.10;12.90;;;;;;;1.26;77.37;99867.69;103532;1297;107592;-68
2022/12/04 03:03:59;;;;;;;29.20;13.00;;;;;;;1.25;77.38;99871.02;103414;1299;97866;-70
2022/12/04 03:06:32;;;;;;;28.70;12.20;;;;;;;1.24;77.44;99866.85;103506;1291;97887;-69
2022/12/04 03:09:19;;;;;;;26.10;11.40;;;;;;;1.23;77.61;99862.70;103483;1298;109874;-69
2022/12/04 03:12:16;;;;;;;29.00;12.00;;;;;;;1.23;77.33;99863.21;103443;1296;95195;-68
2022/12/04 03:15:00;;;;;;;34.20;13.90;;;;;;;1.25;77.48;99866.31;103587;1297;108161;-68
2022/12/04 03:17:38;;;;;;;27.50;13.00;;;;;;;1.26;77.85;99868.89;103331;1294;97874;-69
2022/12/04 03:20:12;;;;;;;28.80;12.90;;;;;;;1.27;77.36;99869.40;103534;1298;97965;-68
2022/12/04 03:22:45;;;;;;;32.70;14.80;;;;;;;1.26;77.21;99867.51;103256;1301;111773;-68
2022/12/04 03:25:14;;;;;;;32.10;13.70;;;;;;;1.26;77.52;99868.91;103560;1298;97985;-68
2022/12/04 03:28:00;;;;;;;30.80;14.10;;;;;;;1.25;77.51;99865.26;103436;1299;107866;-67
2022/12/04 03:30:49;;;;;;;30.30;13.40;;;;;;;1.25;77.49;99862.64;103587;1297;97938;-69
2022/12/04 03:33:27;;;;;;;30.70;13.40;;;;;;;1.23;77.32;99862.70;103579;1288;97882;-69
2022/12/04 03:36:18;;;;;;;31.80;14.20;;;;;;;1.22;77.52;99862.38;103540;1297;111505;-69
2022/12/04 03:39:12;;;;;;;33.00;13.30;;;;;;;1.26;77.64;99867.17;103595;1297;97898;-69
2022/12/04 03:41:53;;;;;;;30.40;13.40;;;;;;;1.27;77.53;99871.85;103390;1297;107415;-70
2022/12/04 03:44:36;;;;;;;29.20;12.30;;;;;;;1.28;77.63;99872.91;103493;1298;97984;-70
2022/12/04 03:47:27;;;;;;;30.80;14.20;;;;;;;1.27;77.71;99875.72;103526;1299;95211;-69
2022/12/04 03:50:23;;;;;;;32.90;13.10;;;;;;;1.27;77.52;99872.72;103558;1298;111772;-69
2022/12/04 03:53:10;;;;;;;31.00;12.20;;;;;;;1.29;77.65;99872.34;103534;1297;96206;-69
2022/12/04 03:55:50;;;;;;;30.10;13.70;;;;;;;1.30;77.69;99871.95;103375;1296;108126;-69
2022/12/04 03:58:28;;;;;;;30.30;13.50;;;;;;;1.31;77.49;99873.87;103408;1297;97955;-68
2022/12/04 04:01:02;;;;;;;28.80;12.30;;;;;;;1.31;77.46;99868.27;103607;1292;95144;-70
2022/12/04 04:03:35;;;;;;;27.40;12.70;;;;;;;1.33;77.60;99863.85;103538;1297;111078;-70
2022/12/04 04:06:22;;;;;;;29.50;14.30;;;;;;;1.35;77.64;99861.03;103630;1291;96200;-68
2022/12/04 04:08:55;;;;;;;30.30;13.40;;;;;;;1.36;77.40;99858.55;103520;1298;107905;-69
2022/12/04 04:11:48;;;;;;;31.20;13.40;;;;;;;1.36;77.41;99859.79;103424;1295;98426;-69
2022/12/04 04:26:38;;;;;;;31.20;13.70;;;;;;;1.29;77.70;99858.54;103557;1298;97994;-69
2022/12/04 04:29:09;;;;;;;30.50;14.00;;;;;;;1.30;77.55;99860.60;103588;1298;95196;-69
2022/12/04 04:31:53;;;;;;;32.20;13.40;;;;;;;1.30;77.38;99866.91;103527;1298;111801;-69
2022/12/04 04:34:33;;;;;;;30.40;13.40;;;;;;;1.29;77.44;99868.13;103522;1299;97925;-68
2022/12/04 04:37:16;;;;;;;28.70;12.40;;;;;;;1.29;77.25;99867.09;103378;1297;107240;-69
2022/12/04 04:39:49;;;;;;;34.00;14.80;;;;;;;1.29;77.41;99868.66;103583;1299;97319;-69
2022/12/04 04:42:36;;;;;;;23.70;10.70;;;;;;;1.25;77.30;99864.75;103487;1297;97818;-68
2022/12/04 04:45:11;;;;;;;26.80;12.60;;;;;;;1.22;77.55;99864.98;103462;1296;153938;-68
2022/12/04 04:47:53;;;;;;;28.80;12.70;;;;;;;1.21;77.38;99862.39;103611;1297;95228;-69
2022/12/04 04:50:23;;;;;;;28.00;12.50;;;;;;;1.16;77.45;99862.14;103472;1289;108139;-70
2022/12/04 04:52:58;;;;;;;32.80;13.90;;;;;;;1.16;77.62;99862.65;103522;1295;95275;-70
2022/12/04 04:55:33;;;;;;;31.10;13.50;;;;;;;1.17;77.66;99862.11;103434;1299;98002;-70
2022/12/04 04:58:14;;;;;;;34.70;16.30;;;;;;;1.20;77.63;99866.09;103568;1299;111195;-69
2022/12/04 05:01:10;;;;;;;29.00;13.20;;;;;;;1.23;77.78;99868.29;103430;1295;95268;-73
2022/12/04 05:03:41;;;;;;;31.70;14.70;;;;;;;1.24;77.77;99868.60;103361;1299;107693;-70
2022/12/04 05:06:09;;;;;;;29.80;12.60;;;;;;;1.25;77.46;99870.33;103602;1295;96982;-69
2022/12/04 05:08:40;;;;;;;30.70;13.80;;;;;;;1.27;77.61;99869.42;103632;1304;97985;-71
2022/12/04 05:11:13;;;;;;;31.10;13.80;;;;;;;1.27;77.51;99870.45;103562;1293;110819;-69
2022/12/04 05:13:43;;;;;;;30.50;14.60;;;;;;;1.27;77.61;99864.36;103659;1298;95629;-71
2022/12/04 05:16:15;;;;;;;27.40;12.40;;;;;;;1.25;77.73;99865.42;103461;1297;107198;-69
2022/12/04 05:21:34;;;;;;;30.80;13.40;;;;;;;1.22;77.58;99863.08;103626;1298;97031;-67
2022/12/04 05:24:02;;;;;;;30.10;12.40;;;;;;;1.23;77.57;99857.26;103516;1299;110728;-68
2022/12/04 05:26:30;;;;;;;29.50;14.30;;;;;;;1.26;77.77;99855.63;103432;1298;96321;-67
2022/12/04 05:28:58;;;;;;;28.30;12.40;;;;;;;1.26;77.59;99857.90;103577;1296;107540;-70
2022/12/04 05:31:26;;;;;;;27.20;12.10;;;;;;;1.25;77.54;99857.75;103591;1297;95212;-69
2022/12/04 05:33:57;;;;;;;27.90;11.60;;;;;;;1.24;77.58;99856.21;104164;1291;97866;-68
2022/12/04 05:36:25;;;;;;;27.70;12.30;;;;;;;1.23;77.66;99856.39;103538;1297;111408;-69
2022/12/04 05:38:53;;;;;;;29.70;13.20;;;;;;;1.24;77.58;99858.66;103596;1299;97847;-68
2022/12/04 05:41:21;;;;;;;30.40;13.60;;;;;;;1.24;77.66;99861.27;103544;1292;107451;-68
2022/12/04 05:43:49;;;;;;;28.30;12.60;;;;;;;1.26;77.53;99864.01;103549;1298;98533;-68
2022/12/04 05:46:17;;;;;;;26.50;12.30;;;;;;;1.27;77.74;99866.80;103607;1291;97945;-68
2022/12/04 05:48:46;;;;;;;28.80;13.00;;;;;;;1.26;77.84;99869.77;103619;1292;111795;-69
2022/12/04 05:51:14;;;;;;;28.80;12.30;;;;;;;1.28;77.73;99874.29;103518;1297;97931;-69
2022/12/04 05:53:42;;;;;;;28.70;12.80;;;;;;;1.30;77.41;99876.17;103621;1292;107858;-68
2022/12/04 05:56:10;;;;;;;33.00;13.80;;;;;;;1.30;77.55;99876.16;103642;1297;97973;-68
2022/12/04 05:58:40;;;;;;;27.50;12.90;;;;;;;1.29;77.66;99877.40;103626;1299;98187;-69
2022/12/04 06:01:12;;;;;;;28.10;12.60;;;;;;;1.28;77.68;99877.59;103569;1289;111458;-69
2022/12/04 06:03:40;;;;;;;27.60;12.40;;;;;;;1.29;77.50;99884.92;103621;1301;97857;-69
2022/12/04 06:06:18;;;;;;;32.60;14.00;;;;;;;1.28;77.67;99880.58;103448;1291;108125;-69
2022/12/04 06:08:55;;;;;;;28.50;12.60;;;;;;;1.26;77.80;99880.27;103361;1292;97954;-68
2022/12/04 06:11:29;;;;;;;26.90;11.80;;;;;;;1.27;77.91;99883.58;103385;1295;97832;-67
2022/12/04 06:14:01;;;;;;;32.10;14.50;;;;;;;1.27;77.60;99884.77;103409;1299;111022;-68
2022/12/04 06:16:36;;;;;;;28.90;13.20;;;;;;;1.28;77.79;99889.48;103363;1300;97192;-68
2022/12/04 06:19:15;;;;;;;30.20;13.20;;;;;;;1.28;77.79;99885.80;103465;1298;107203;-68
2022/12/04 06:21:47;;;;;;;30.90;12.40;;;;;;;1.29;77.87;99885.46;103400;1299;98069;-69
2022/12/04 06:24:20;;;;;;;29.40;13.30;;;;;;;1.30;77.61;99887.54;103404;1297;97951;-68
2022/12/04 06:26:50;;;;;;;30.00;14.80;;;;;;;1.30;77.60;99886.46;103267;1294;110507;-69
2022/12/04 06:29:38;;;;;;;27.70;12.20;;;;;;;1.31;77.77;99883.66;103298;1295;95178;-70
2022/12/04 06:32:05;;;;;;;30.20;13.60;;;;;;;1.31;77.80;99884.54;103250;1300;107139;-70
2022/12/04 06:34:35;;;;;;;28.50;12.50;;;;;;;1.31;77.65;99886.80;103377;1292;97869;-69
2022/12/04 06:37:05;;;;;;;28.30;12.80;;;;;;;1.31;77.79;99889.58;103304;1297;98670;-67
2022/12/04 06:39:33;;;;;;;27.80;12.60;;;;;;;1.34;77.84;99895.14;103362;1291;111899;-69
2022/12/04 06:42:01;;;;;;;28.70;12.80;;;;;;;1.34;77.66;99886.21;103358;1300;97696;-68
2022/12/04 06:44:29;;;;;;;29.00;12.80;;;;;;;1.35;77.74;99882.38;103231;1300;108147;-69
2022/12/04 06:46:57;;;;;;;28.60;12.50;;;;;;;1.35;77.42;99886.72;103378;1297;97819;-68
2022/12/04 06:49:27;;;;;;;29.30;12.50;;;;;;;1.34;77.53;99894.77;103383;1291;97933;-69
2022/12/04 06:51:58;;;;;;;28.50;13.40;;;;;;;1.32;77.62;99896.93;103403;1299;110849;-68
2022/12/04 06:54:25;;;;;;;29.90;13.00;;;;;;;1.32;77.36;99889.20;103349;1291;97882;-68
2022/12/04 06:56:53;;;;;;;29.70;12.70;;;;;;;1.31;77.62;99892.57;103368;1294;107876;-69
2022/12/04 06:59:23;;;;;;;30.50;13.30;;;;;;;1.31;77.49;99892.58;103374;1297;97842;-70
2022/12/04 07:01:50;;;;;;;29.20;12.20;;;;;;;1.30;77.43;99890.15;103382;1298;97829;-68
2022/12/04 07:04:20;;;;;;;26.50;11.80;;;;;;;1.27;77.74;99886.17;103379;1291;111132;-71
2022/12/04 07:06:48;;;;;;;27.80;12.20;;;;;;;1.26;77.73;99882.36;103466;1291;97961;-72
2022/12/04 07:09:17;;;;;;;26.40;11.90;;;;;;;1.26;77.38;99885.34;103456;1297;107495;-75
2022/12/04 07:11:47;;;;;;;27.80;12.20;;;;;;;1.26;77.59;99889.00;103490;1297;98609;-71
2022/12/04 07:14:15;;;;;;;30.60;13.10;;;;;;;1.28;77.91;99889.32;103372;1293;97857;-70
2022/12/04 07:16:42;;;;;;;29.40;12.30;;;;;;;1.30;77.87;99886.84;103470;1297;109240;-71
2022/12/04 07:19:13;;;;;;;28.20;12.20;;;;;;;1.29;77.57;99891.21;103306;1299;97734;-71
2022/12/04 07:21:43;;;;;;;28.60;12.40;;;;;;;1.30;77.77;99888.58;103396;1291;107601;-71
2022/12/04 07:24:17;;;;;;;27.20;11.70;;;;;;;1.31;77.58;99888.02;103429;1297;98200;-71
2022/12/04 07:26:47;;;;;;;29.80;12.80;;;;;;;1.31;77.58;99888.91;103559;1297;95245;-72
2022/12/04 07:29:15;;;;;;;27.70;12.30;;;;;;;1.32;77.62;99889.92;103440;1298;111188;-72
2022/12/04 07:31:44;;;;;;;28.20;13.00;;;;;;;1.33;77.49;99890.95;103553;1299;97861;-72
2022/12/04 07:34:14;;;;;;;29.70;12.70;;;;;;;1.33;77.58;99898.31;103477;1297;107421;-70
2022/12/04 07:36:42;;;;;;;30.00;13.00;;;;;;;1.35;77.55;99897.20;103437;1299;97742;-71
2022/12/04 07:39:13;;;;;;;29.40;12.80;;;;;;;1.39;77.85;99896.77;103358;1298;97093;-71
2022/12/04 07:41:41;;;;;;;27.30;13.20;;;;;;;1.43;77.42;99896.34;103529;1291;111019;-70
2022/12/04 07:44:09;;;;;;;27.70;12.40;;;;;;;1.44;77.77;99895.23;103438;1291;97780;-72
2022/12/04 07:46:37;;;;;;;29.80;14.20;;;;;;;1.48;77.87;99895.68;103414;1297;107535;-70
2022/12/04 07:49:05;;;;;;;30.40;15.20;;;;;;;1.52;77.62;99891.59;103399;1298;97910;-69
2022/12/04 07:51:32;;;;;;;27.20;12.40;;;;;;;1.56;77.75;99891.86;103507;1291;97894;-69
2022/12/04 07:54:00;;;;;;;30.50;13.90;;;;;;;1.57;77.66;99888.35;103346;1285;111245;-69
2022/12/04 07:56:33;;;;;;;31.20;14.80;;;;;;;1.61;77.81;99889.13;103482;1292;99127;-70
2022/12/04 07:59:01;;;;;;;26.40;12.50;;;;;;;1.64;77.77;99890.79;103246;1302;109186;-69
2022/12/04 08:01:31;;;;;;;26.80;12.80;;;;;;;1.67;77.84;99895.81;103435;1295;97735;-68
2022/12/04 08:04:03;;;;;;;28.60;13.10;;;;;;;1.69;77.50;99894.00;103470;1291;97905;-68
2022/12/04 08:06:34;;;;;;;31.20;14.80;;;;;;;1.72;77.84;99899.53;103450;1298;109860;-70
2022/12/04 08:09:03;;;;;;;28.20;13.00;;;;;;;1.75;77.80;99900.34;103348;1285;95336;-69
2022/12/04 08:11:39;;;;;;;28.30;13.10;;;;;;;1.81;77.73;99893.58;103311;1298;107865;-69
2022/12/04 08:14:12;;;;;;;31.70;14.30;;;;;;;1.83;77.83;99888.61;103226;1298;98076;-70
2022/12/04 08:16:40;;;;;;;30.10;13.40;;;;;;;1.85;77.99;99887.17;103219;1301;98012;-70
2022/12/04 08:19:08;;;;;;;29.30;13.60;;;;;;;1.89;77.62;99893.20;103196;1296;110188;-70
2022/12/04 08:21:36;;;;;;;30.40;14.00;;;;;;;1.94;77.91;99890.82;103453;1299;96194;-69
2022/12/04 08:24:04;;;;;;;29.20;13.80;;;;;;;1.98;77.85;99895.63;103277;1298;107761;-69
2022/12/04 08:26:32;;;;;;;28.40;13.40;;;;;;;2.01;77.82;99892.75;103510;1291;97871;-69
2022/12/04 08:29:02;;;;;;;27.50;12.70;;;;;;;2.01;77.53;99892.91;103469;1299;97917;-70
2022/12/04 08:31:33;;;;;;;29.00;13.70;;;;;;;2.04;77.74;99898.63;103345;1299;111564;-71
2022/12/04 08:34:05;;;;;;;28.10;12.70;;;;;;;2.05;77.83;99904.17;103185;1300;96910;-71
2022/12/04 08:36:34;;;;;;;27.90;12.50;;;;;;;2.06;77.76;99907.33;103312;1292;107326;-72
2022/12/04 08:39:03;;;;;;;27.50;12.40;;;;;;;2.08;77.91;99909.53;103399;1298;96509;-69
2022/12/04 08:41:32;;;;;;;27.70;13.20;;;;;;;2.11;77.78;99910.17;103382;1292;99983;-71
2022/12/04 08:44:00;;;;;;;27.70;14.20;;;;;;;2.13;77.97;99909.42;103498;1291;109830;-69
2022/12/04 08:46:28;;;;;;;29.70;13.60;;;;;;;2.16;77.66;99909.52;103416;1291;95196;-68
2022/12/04 08:48:58;;;;;;;28.80;12.70;;;;;;;2.19;77.88;99907.52;103251;1294;106962;-69
2022/12/04 08:51:32;;;;;;;28.30;14.20;;;;;;;2.24;77.70;99912.33;103309;1285;97923;-68
2022/12/04 08:54:07;;;;;;;31.70;14.90;;;;;;;2.27;77.54;99911.54;103420;1295;97864;-70
2022/12/04 08:56:37;;;;;;;29.20;14.20;;;;;;;2.27;77.70;99909.77;103318;1300;111170;-68
2022/12/04 08:59:06;;;;;;;29.60;13.30;;;;;;;2.27;77.44;99907.48;103426;1302;98035;-68
2022/12/04 09:01:34;;;;;;;30.40;14.70;;;;;;;2.26;77.32;99906.81;103526;1295;108104;-71
2022/12/04 09:04:01;;;;;;;30.80;14.40;;;;;;;2.24;77.38;99904.95;103582;1291;97897;-71
2022/12/04 09:06:31;;;;;;;27.30;12.80;;;;;;;2.20;77.56;99900.31;103333;1298;97956;-69
2022/12/04 09:09:00;;;;;;;30.10;14.20;;;;;;;2.19;77.78;99900.52;103559;1292;111218;-69
2022/12/04 09:11:31;;;;;;;29.50;14.40;;;;;;;2.18;77.59;99901.09;103520;1294;95257;-70
2022/12/04 09:14:03;;;;;;;33.30;16.10;;;;;;;2.15;77.53;99894.15;103432;1299;107879;-70
2022/12/04 09:16:30;;;;;;;30.60;15.30;;;;;;;2.14;77.40;99897.31;103368;1291;95841;-71
2022/12/04 09:19:00;;;;;;;31.40;15.60;;;;;;;2.13;77.74;99901.37;103388;1295;95185;-71
2022/12/04 09:21:29;;;;;;;30.60;14.20;;;;;;;2.14;77.72;99898.72;103350;1291;111445;-70
2022/12/04 09:23:59;;;;;;;30.70;14.10;;;;;;;2.14;77.40;99893.66;103442;1292;97972;-70
2022/12/04 09:26:30;;;;;;;29.60;14.10;;;;;;;2.12;77.33;99891.94;103330;1297;107530;-70
2022/12/04 09:29:03;;;;;;;27.50;13.40;;;;;;;2.12;77.65;99893.53;103281;1300;98524;-69
2022/12/04 09:31:35;;;;;;;28.90;13.20;;;;;;;2.08;77.55;99890.63;103519;1297;97893;-70
2022/12/04 09:34:03;;;;;;;30.30;13.10;;;;;;;2.09;77.40;99883.09;103453;1298;111209;-69
2022/12/04 09:36:31;;;;;;;32.90;14.30;;;;;;;2.08;77.61;99881.89;103282;1301;97914;-69
2022/12/04 09:38:59;;;;;;;32.00;14.80;;;;;;;2.10;77.49;99878.35;103422;1292;107866;-69
2022/12/04 09:41:33;;;;;;;28.80;13.20;;;;;;;2.10;77.57;99878.52;103444;1299;98536;-70
2022/12/04 09:44:04;;;;;;;;;;;;;;;2.12;77.51;99874.47;103403;1299;97812;-69
2022/12/04 09:46:55;;;;;;;31.70;15.90;;;;;;;2.11;77.60;99877.27;103426;1299;111800;-70
2022/12/04 09:49:36;;;;;;;31.60;15.00;;;;;;;2.12;77.31;99878.13;103431;1298;97971;-70
2022/12/04 09:52:23;;;;;;;34.90;16.10;;;;;;;2.12;77.63;99883.90;103474;1299;106424;-70
2022/12/04 09:54:54;;;;;;;29.40;14.30;;;;;;;2.12;77.62;99886.35;103527;1293;97941;-68
2022/12/04 09:57:39;;;;;;;28.70;14.10;;;;;;;2.11;77.78;99886.54;103500;1293;95201;-70
2022/12/04 10:00:20;;;;;;;31.70;15.60;;;;;;;2.11;77.48;99887.59;103517;1298;110516;-69
2022/12/04 10:03:00;;;;;;;35.00;17.80;;;;;;;2.11;77.54;99891.80;103540;1295;98508;-69
2022/12/04 10:05:53;;;;;;;29.40;13.70;;;;;;;2.12;77.46;99886.88;103230;1290;107922;-69
2022/12/04 10:08:39;;;;;;;31.60;16.20;;;;;;;2.10;77.39;99886.20;103385;1285;95193;-70
2022/12/04 10:11:16;;;;;;;34.10;17.00;;;;;;;2.11;77.18;99889.70;103397;1298;97990;-69
2022/12/04 10:14:04;;;;;;;31.90;15.60;;;;;;;2.13;77.53;99887.41;103436;1291;111718;-70
2022/12/04 10:16:59;;;;;;;34.10;16.20;;;;;;;2.12;77.56;99880.23;103506;1285;98002;-70
2022/12/04 10:20:00;;;;;;;31.60;15.40;;;;;;;2.13;77.44;99887.19;103478;1292;108167;-71
2022/12/04 10:22:40;;;;;;;30.90;14.90;;;;;;;2.14;77.54;99889.80;103492;1297;97998;-71
2022/12/04 10:25:21;;;;;;;33.10;15.00;;;;;;;2.14;77.52;99878.79;103459;1291;98411;-70
2022/12/04 10:27:57;;;;;;;32.50;14.30;;;;;;;2.14;77.41;99872.83;103444;1292;114070;-69
2022/12/04 10:30:31;;;;;;;32.50;15.10;;;;;;;2.15;77.34;99874.73;103384;1299;97995;-71
2022/12/04 10:33:14;;;;;;;32.20;16.30;;;;;;;2.17;77.37;99871.18;103514;1291;106477;-69
2022/12/04 10:35:47;;;;;;;33.80;15.70;;;;;;;2.21;77.38;99859.71;103524;1292;97950;-70
2022/12/04 10:38:34;;;;;;;32.10;15.00;;;;;;;2.22;77.27;99854.42;103546;1291;98996;-73
2022/12/04 10:41:27;;;;;;;31.10;14.20;;;;;;;2.20;77.18;99850.64;103601;1291;111083;-71
2022/12/04 10:43:56;;;;;;;30.20;14.00;;;;;;;2.18;77.12;99840.89;103459;1291;96288;-70
2022/12/04 10:46:30;;;;;;;31.90;15.70;;;;;;;2.17;77.33;99834.79;103219;1291;107422;-70
2022/12/04 10:48:58;;;;;;;31.90;15.10;;;;;;;2.19;77.16;99829.30;103312;1291;99127;-70
2022/12/04 10:51:38;;;;;;;30.70;14.80;;;;;;;2.23;77.18;99825.17;103520;1294;97983;-70
2022/12/04 10:54:36;;;;;;;29.20;14.90;;;;;;;2.26;77.26;99817.39;103419;1291;111256;-70
2022/12/04 10:57:10;;;;;;;29.40;15.20;;;;;;;2.27;77.18;99818.60;103396;1300;97930;-70
2022/12/04 10:59:55;;;;;;;31.10;14.90;;;;;;;2.29;77.13;99819.08;103370;1291;107512;-69
2022/12/04 11:02:29;;;;;;;26.80;13.00;;;;;;;2.31;77.25;99816.20;103477;1291;95408;-69
2022/12/04 11:05:21;;;;;;;28.80;13.90;;;;;;;2.32;77.12;99816.53;103501;1291;96261;-70
2022/12/04 11:07:53;;;;;;;27.10;13.20;;;;;;;2.32;77.18;99818.46;103415;1291;111543;-69
2022/12/04 11:10:31;;;;;;;26.90;13.90;;;;;;;2.32;77.07;99814.08;103489;1291;97679;-69
2022/12/04 11:13:22;;;;;;;29.70;13.60;;;;;;;2.33;77.26;99810.73;103449;1284;108132;-68
2022/12/04 11:15:54;;;;;;;30.40;14.60;;;;;;;2.36;77.43;99808.37;103351;1294;97894;-69
2022/12/04 11:18:28;;;;;;;30.50;14.60;;;;;;;2.41;77.33;99800.58;103371;1291;95208;-69
2022/12/04 11:21:01;;;;;;;;;;;;;;;2.42;77.18;99800.88;103416;1292;110083;-68
2022/12/04 11:23:41;;;;;;;27.00;12.00;;;;;;;2.40;77.45;99803.55;103497;1291;97867;-69
2022/12/04 11:26:12;;;;;;;25.40;13.00;;;;;;;2.41;77.38;99804.05;103325;1293;107411;-69
2022/12/04 11:28:51;;;;;;;26.60;12.70;;;;;;;2.42;77.20;99801.91;103508;1291;98019;-69
2022/12/04 11:31:23;;;;;;;26.80;14.50;;;;;;;2.43;76.93;99800.15;103279;1294;97863;-70
2022/12/04 11:34:02;;;;;;;28.70;13.90;;;;;;;2.41;77.12;99798.27;103476;1296;111239;-70
2022/12/04 11:36:40;;;;;;;28.90;14.80;;;;;;;2.41;77.19;99794.77;103388;1291;97866;-69
2022/12/04 11:39:11;;;;;;;28.20;13.10;;;;;;;2.43;77.12;99796.65;103372;1295;107691;-69
2022/12/04 11:41:41;;;;;;;21.30;10.60;;;;;;;2.44;77.02;99797.15;103408;1291;95852;-68
2022/12/04 11:44:24;;;;;;;28.80;14.40;;;;;;;2.42;77.21;99799.11;103483;1291;97879;-69
2022/12/04 11:46:57;;;;;;;29.70;14.50;;;;;;;2.43;77.25;99802.41;103389;1291;111206;-68
2022/12/04 11:49:29;;;;;;;28.80;15.00;;;;;;;2.41;77.21;99803.35;103502;1299;97832;-69
2022/12/04 11:52:31;;;;;;;26.90;13.10;;;;;;;2.41;77.28;99803.36;103330;1298;107467;-69
2022/12/04 11:55:21;;;;;;;26.10;12.00;;;;;;;2.40;77.02;99805.13;103390;1297;97944;-69
2022/12/04 11:58:28;;;;;;;26.70;11.70;;;;;;;2.41;76.96;99806.69;103261;1293;97953;-69
2022/12/04 12:01:23;;;;;;;25.10;11.60;;;;;;;2.40;77.32;99796.38;103191;1301;111205;-71
2022/12/04 12:04:29;;;;;;;25.40;12.40;;;;;;;2.37;77.14;99797.51;103326;1292;96224;-69